Etusivu
METAR-TAF:

METAR-TAF

Lentoasemat :

Halmstad, Ruotsi

Leveyspiiri: 56-41N, Pituuspiiri: 012-50E, korkeus merenpinnasta: 30 m

Tämänhetkinen sää

Tämä raportti tehtiin 5 minuuttia sitten, kello 11.50 UTC
Tuuli 10 kn idästä/kaakosta, vaihdellen idän ja kaakon välillä
Lämpötila 10°C
Kosteus 87%
Ilmanpaine 1016 hPa
Näkyvyys 10 km tai enemmän
Hajonneita pilviä 1000 ft:n korkeudessa

METAR: ESMT 211150Z 11010KT 080V140 9999 BKN010 10/08 Q1016

Aika: 12:55 (11:55 UTC)

Sääennuste

Tämä raportti tehtiin 44 minuuttia sitten, kello 11.11 UTC
Ennuste voimassa 21. päivästä klo 12 UTC - 21. päivään klo 21 UTC
Tuuli 10 kn kaakosta
Näkyvyys: 8000 m
Hajonneita pilviä 1000 ft:n korkeudessa
Ajoittain
21. päivästä klo 12 UTC - 21. päivään klo 21 UTC
Näkyvyys: 4000 m
Hajonneita pilviä 800 ft:n korkeudessa
heikkoa sadetta, tihkusadetta, utua

TAF: ESMT 211111Z 2112/2121 13010KT 8000 BKN010 TEMPO 2112/2121 4000 -RADZ BR BKN008

Säähavainnot ja -ennusteet yli 4000 lentoasemalta (METAR- ja TAF-raportit).

Käytössä olevat sääasemat on merkitty karttaan keltaisilla ja punaisilla pisteillä.

Aseta hiiri pisteen päälle nähdäksesi sääaseman nimen.

Klikkaa sitten nähdäksesi säähavainnot ja -ennusteet.

Kartan vaihtaminen: klikkaa mustalla rastilla varustettuja vihreitä pisteitä, niin voit zoomata sisään; viivalla varustettua vihreää pistettä, niin voit zoomata ulos tai vihreitä nuolia, niin pääset viereisille kartoille.


METAR-TAF: